sensor_id;sensor_type;location;lat;lon;timestamp;pressure;altitude;pressure_sealevel;temperature;humidity
55066;BME280;40964;42.114;24.220;2023-05-27T00:02:00;97731.69;;;15.80;86.22
55066;BME280;40964;42.114;24.220;2023-05-27T00:04:26;97739.19;;;15.88;86.60
55066;BME280;40964;42.114;24.220;2023-05-27T00:06:52;97735.78;;;15.93;85.68
55066;BME280;40964;42.114;24.220;2023-05-27T00:09:18;97732.13;;;15.99;85.38
55066;BME280;40964;42.114;24.220;2023-05-27T00:11:43;97730.53;;;15.98;86.26
55066;BME280;40964;42.114;24.220;2023-05-27T00:14:09;97729.25;;;16.01;86.44
55066;BME280;40964;42.114;24.220;2023-05-27T00:16:34;97735.63;;;16.05;86.80
55066;BME280;40964;42.114;24.220;2023-05-27T00:19:02;97710.59;;;15.91;87.57
55066;BME280;40964;42.114;24.220;2023-05-27T00:21:28;97732.88;;;15.95;87.92
55066;BME280;40964;42.114;24.220;2023-05-27T00:23:53;97736.59;;;15.94;88.58
55066;BME280;40964;42.114;24.220;2023-05-27T00:26:18;97726.06;;;16.04;88.80
55066;BME280;40964;42.114;24.220;2023-05-27T00:28:44;97730.59;;;16.08;88.49
55066;BME280;40964;42.114;24.220;2023-05-27T00:31:09;97731.66;;;16.07;88.37
55066;BME280;40964;42.114;24.220;2023-05-27T00:33:35;97720.59;;;16.15;87.54
55066;BME280;40964;42.114;24.220;2023-05-27T00:36:00;97718.81;;;16.26;86.74
55066;BME280;40964;42.114;24.220;2023-05-27T00:38:26;97721.50;;;16.31;86.15
55066;BME280;40964;42.114;24.220;2023-05-27T00:40:53;97718.09;;;16.36;86.43
55066;BME280;40964;42.114;24.220;2023-05-27T00:43:18;97717.84;;;16.37;86.13
55066;BME280;40964;42.114;24.220;2023-05-27T00:45:44;97712.81;;;16.41;85.99
55066;BME280;40964;42.114;24.220;2023-05-27T00:48:09;97708.34;;;16.46;86.11
55066;BME280;40964;42.114;24.220;2023-05-27T00:50:35;97705.94;;;16.45;84.72
55066;BME280;40964;42.114;24.220;2023-05-27T00:53:01;97709.34;;;16.40;85.21
55066;BME280;40964;42.114;24.220;2023-05-27T00:55:27;97699.00;;;16.39;86.72
55066;BME280;40964;42.114;24.220;2023-05-27T00:57:53;97693.94;;;16.37;88.19
55066;BME280;40964;42.114;24.220;2023-05-27T01:00:20;97692.84;;;16.33;88.23
55066;BME280;40964;42.114;24.220;2023-05-27T01:02:46;97697.66;;;16.36;88.42
55066;BME280;40964;42.114;24.220;2023-05-27T01:05:14;97691.56;;;16.36;88.23
55066;BME280;40964;42.114;24.220;2023-05-27T01:07:47;97701.19;;;16.47;86.91
55066;BME280;40964;42.114;24.220;2023-05-27T01:10:31;97695.38;;;16.55;87.15
55066;BME280;40964;42.114;24.220;2023-05-27T01:13:07;97697.25;;;16.60;88.14
55066;BME280;40964;42.114;24.220;2023-05-27T01:15:34;97700.97;;;16.54;87.24
55066;BME280;40964;42.114;24.220;2023-05-27T01:18:02;97694.88;;;16.58;86.40
55066;BME280;40964;42.114;24.220;2023-05-27T01:20:30;97696.50;;;16.64;86.60
55066;BME280;40964;42.114;24.220;2023-05-27T01:22:57;97697.28;;;16.65;86.01
55066;BME280;40964;42.114;24.220;2023-05-27T01:25:24;97694.13;;;16.68;85.91
55066;BME280;40964;42.114;24.220;2023-05-27T01:27:50;97693.28;;;16.62;86.43
55066;BME280;40964;42.114;24.220;2023-05-27T01:30:16;97688.22;;;16.61;87.42
55066;BME280;40964;42.114;24.220;2023-05-27T01:32:55;97672.56;;;16.54;87.30
55066;BME280;40964;42.114;24.220;2023-05-27T01:35:27;97683.97;;;16.60;86.19
55066;BME280;40964;42.114;24.220;2023-05-27T01:37:56;97680.78;;;16.58;87.71
55066;BME280;40964;42.114;24.220;2023-05-27T01:40:27;97672.28;;;16.56;87.35
55066;BME280;40964;42.114;24.220;2023-05-27T01:42:53;97673.34;;;16.60;86.81
55066;BME280;40964;42.114;24.220;2023-05-27T01:45:21;97676.31;;;16.63;86.69
55066;BME280;40964;42.114;24.220;2023-05-27T01:47:47;97663.88;;;16.69;85.55
55066;BME280;40964;42.114;24.220;2023-05-27T01:50:13;97670.78;;;16.70;85.40
55066;BME280;40964;42.114;24.220;2023-05-27T01:52:38;97671.81;;;16.64;86.26
55066;BME280;40964;42.114;24.220;2023-05-27T01:55:04;97670.44;;;16.61;85.03
55066;BME280;40964;42.114;24.220;2023-05-27T01:57:30;97667.28;;;16.64;84.81
55066;BME280;40964;42.114;24.220;2023-05-27T01:59:56;97665.72;;;16.68;85.31
55066;BME280;40964;42.114;24.220;2023-05-27T02:02:22;97668.13;;;16.70;85.33
55066;BME280;40964;42.114;24.220;2023-05-27T02:04:47;97668.69;;;16.72;84.92
55066;BME280;40964;42.114;24.220;2023-05-27T02:07:12;97666.31;;;16.76;83.79
55066;BME280;40964;42.114;24.220;2023-05-27T02:09:38;97670.81;;;16.80;83.56
55066;BME280;40964;42.114;24.220;2023-05-27T02:12:03;97667.91;;;16.77;80.90
55066;BME280;40964;42.114;24.220;2023-05-27T02:14:30;97665.78;;;16.73;81.80
55066;BME280;40964;42.114;24.220;2023-05-27T02:16:56;97667.09;;;16.76;81.94
55066;BME280;40964;42.114;24.220;2023-05-27T02:19:21;97667.13;;;16.81;81.69
55066;BME280;40964;42.114;24.220;2023-05-27T02:21:47;97662.63;;;16.82;81.11
55066;BME280;40964;42.114;24.220;2023-05-27T02:24:12;97661.28;;;16.84;81.54
55066;BME280;40964;42.114;24.220;2023-05-27T02:26:38;97663.69;;;16.86;82.05
55066;BME280;40964;42.114;24.220;2023-05-27T02:29:03;97661.00;;;16.76;83.14
55066;BME280;40964;42.114;24.220;2023-05-27T02:31:29;97669.00;;;16.81;83.92
55066;BME280;40964;42.114;24.220;2023-05-27T02:33:54;97666.56;;;16.74;84.68
55066;BME280;40964;42.114;24.220;2023-05-27T02:36:19;97665.94;;;16.62;85.13
55066;BME280;40964;42.114;24.220;2023-05-27T02:38:46;97664.34;;;16.61;85.02
55066;BME280;40964;42.114;24.220;2023-05-27T02:41:11;97661.94;;;16.54;84.22
55066;BME280;40964;42.114;24.220;2023-05-27T02:43:37;97670.66;;;16.50;84.17
55066;BME280;40964;42.114;24.220;2023-05-27T02:46:02;97669.06;;;16.49;83.72
55066;BME280;40964;42.114;24.220;2023-05-27T02:48:28;97666.66;;;16.47;82.44
55066;BME280;40964;42.114;24.220;2023-05-27T02:50:53;97665.56;;;16.43;82.93
55066;BME280;40964;42.114;24.220;2023-05-27T02:53:19;97676.97;;;16.43;82.69
55066;BME280;40964;42.114;24.220;2023-05-27T02:55:44;97671.44;;;16.45;82.29
55066;BME280;40964;42.114;24.220;2023-05-27T02:58:10;97671.41;;;16.40;81.00
55066;BME280;40964;42.114;24.220;2023-05-27T03:00:35;97654.41;;;16.36;82.38
55066;BME280;40964;42.114;24.220;2023-05-27T03:03:01;97667.09;;;16.34;81.56
55066;BME280;40964;42.114;24.220;2023-05-27T03:05:29;97672.97;;;16.36;82.35
55066;BME280;40964;42.114;24.220;2023-05-27T03:07:55;97672.69;;;16.32;81.87
55066;BME280;40964;42.114;24.220;2023-05-27T03:10:20;97672.47;;;16.39;81.00
55066;BME280;40964;42.114;24.220;2023-05-27T03:12:45;97675.06;;;16.34;80.38
55066;BME280;40964;42.114;24.220;2023-05-27T03:15:11;97674.50;;;16.27;81.77
55066;BME280;40964;42.114;24.220;2023-05-27T03:17:37;97672.94;;;16.31;81.21
55066;BME280;40964;42.114;24.220;2023-05-27T03:20:03;97668.44;;;16.31;80.36
55066;BME280;40964;42.114;24.220;2023-05-27T03:22:29;97665.78;;;16.31;79.77
55066;BME280;40964;42.114;24.220;2023-05-27T03:24:55;97656.75;;;16.32;79.30
55066;BME280;40964;42.114;24.220;2023-05-27T03:27:20;97663.13;;;16.31;78.98
55066;BME280;40964;42.114;24.220;2023-05-27T03:29:46;97668.69;;;16.30;78.82
55066;BME280;40964;42.114;24.220;2023-05-27T03:32:11;97671.88;;;16.32;78.82
55066;BME280;40964;42.114;24.220;2023-05-27T03:34:37;97665.72;;;16.26;78.77
55066;BME280;40964;42.114;24.220;2023-05-27T03:37:03;97667.03;;;16.24;78.84
55066;BME280;40964;42.114;24.220;2023-05-27T03:39:28;97672.66;;;16.27;79.15
55066;BME280;40964;42.114;24.220;2023-05-27T03:41:54;97668.63;;;16.25;79.14
55066;BME280;40964;42.114;24.220;2023-05-27T03:44:19;97671.03;;;16.26;78.53
55066;BME280;40964;42.114;24.220;2023-05-27T03:46:45;97660.13;;;16.17;78.39
55066;BME280;40964;42.114;24.220;2023-05-27T03:49:10;97675.06;;;16.29;78.43
55066;BME280;40964;42.114;24.220;2023-05-27T03:51:36;97676.16;;;16.38;77.82
55066;BME280;40964;42.114;24.220;2023-05-27T03:54:01;97671.13;;;16.41;77.87
55066;BME280;40964;42.114;24.220;2023-05-27T03:56:27;97674.91;;;16.45;77.16
55066;BME280;40964;42.114;24.220;2023-05-27T03:58:52;97672.78;;;16.53;75.33
55066;BME280;40964;42.114;24.220;2023-05-27T04:01:18;97676.25;;;16.53;75.60
55066;BME280;40964;42.114;24.220;2023-05-27T04:03:45;97680.84;;;16.63;76.00
55066;BME280;40964;42.114;24.220;2023-05-27T04:06:11;97668.69;;;16.72;76.62
55066;BME280;40964;42.114;24.220;2023-05-27T04:08:36;97676.69;;;16.82;77.60
55066;BME280;40964;42.114;24.220;2023-05-27T04:11:04;97681.75;;;16.84;79.53
55066;BME280;40964;42.114;24.220;2023-05-27T04:13:30;97684.94;;;16.81;82.29
55066;BME280;40964;42.114;24.220;2023-05-27T04:15:55;97682.28;;;16.86;83.11
55066;BME280;40964;42.114;24.220;2023-05-27T04:18:22;97675.41;;;16.90;83.56
55066;BME280;40964;42.114;24.220;2023-05-27T04:20:47;97681.50;;;16.90;83.28
55066;BME280;40964;42.114;24.220;2023-05-27T04:23:15;97687.88;;;16.89;83.59
55066;BME280;40964;42.114;24.220;2023-05-27T04:25:41;97681.22;;;16.87;84.01
55066;BME280;40964;42.114;24.220;2023-05-27T04:28:09;97693.22;;;16.94;83.37
55066;BME280;40964;42.114;24.220;2023-05-27T04:30:35;97706.78;;;17.03;84.26
55066;BME280;40964;42.114;24.220;2023-05-27T04:33:04;97709.97;;;17.05;83.91
55066;BME280;40964;42.114;24.220;2023-05-27T04:35:29;97684.66;;;16.87;82.36
55066;BME280;40964;42.114;24.220;2023-05-27T04:37:59;97700.59;;;16.87;83.01
55066;BME280;40964;42.114;24.220;2023-05-27T04:40:27;97701.91;;;16.80;82.60
55066;BME280;40964;42.114;24.220;2023-05-27T04:42:54;97708.31;;;16.89;83.09
55066;BME280;40964;42.114;24.220;2023-05-27T04:45:20;97709.69;;;16.91;82.66
55066;BME280;40964;42.114;24.220;2023-05-27T04:47:45;97705.44;;;16.90;81.90
55066;BME280;40964;42.114;24.220;2023-05-27T04:50:12;97695.84;;;16.89;82.39
55066;BME280;40964;42.114;24.220;2023-05-27T04:52:38;97703.00;;;16.89;81.94
55066;BME280;40964;42.114;24.220;2023-05-27T04:55:07;97701.44;;;16.93;82.21
55066;BME280;40964;42.114;24.220;2023-05-27T04:57:34;97707.06;;;17.01;81.44
55066;BME280;40964;42.114;24.220;2023-05-27T05:00:00;97709.22;;;17.15;80.86
55066;BME280;40964;42.114;24.220;2023-05-27T05:02:29;97705.03;;;17.34;79.58
55066;BME280;40964;42.114;24.220;2023-05-27T05:05:09;97715.16;;;17.42;79.42
55066;BME280;40964;42.114;24.220;2023-05-27T05:07:38;97708.56;;;17.55;78.94
55066;BME280;40964;42.114;24.220;2023-05-27T05:10:12;97716.28;;;17.67;80.29
55066;BME280;40964;42.114;24.220;2023-05-27T05:12:38;97719.25;;;17.85;79.97
55066;BME280;40964;42.114;24.220;2023-05-27T05:15:05;97706.75;;;17.91;79.87
55066;BME280;40964;42.114;24.220;2023-05-27T05:17:31;97719.53;;;18.14;80.58
55066;BME280;40964;42.114;24.220;2023-05-27T05:19:56;97719.00;;;18.28;76.91
55066;BME280;40964;42.114;24.220;2023-05-27T05:22:22;97720.56;;;18.39;77.00
55066;BME280;40964;42.114;24.220;2023-05-27T05:24:51;97722.97;;;18.46;75.10
55066;BME280;40964;42.114;24.220;2023-05-27T05:27:17;97724.31;;;18.53;74.92
55066;BME280;40964;42.114;24.220;2023-05-27T05:29:42;97736.00;;;18.67;75.44
55066;BME280;40964;42.114;24.220;2023-05-27T05:32:09;97735.19;;;18.77;75.35
55066;BME280;40964;42.114;24.220;2023-05-27T05:34:36;97731.44;;;18.88;74.24
55066;BME280;40964;42.114;24.220;2023-05-27T05:37:02;97738.56;;;19.03;75.27
55066;BME280;40964;42.114;24.220;2023-05-27T05:39:27;97739.91;;;18.95;76.83
55066;BME280;40964;42.114;24.220;2023-05-27T05:41:52;97740.44;;;19.03;78.51
55066;BME280;40964;42.114;24.220;2023-05-27T05:44:18;97740.38;;;19.18;78.22
55066;BME280;40964;42.114;24.220;2023-05-27T05:46:43;97746.50;;;19.23;74.07
55066;BME280;40964;42.114;24.220;2023-05-27T05:49:09;97751.25;;;19.32;72.51
55066;BME280;40964;42.114;24.220;2023-05-27T05:51:34;97748.81;;;19.40;73.59
55066;BME280;40964;42.114;24.220;2023-05-27T05:54:01;97749.88;;;19.44;69.78
55066;BME280;40964;42.114;24.220;2023-05-27T05:56:26;97749.78;;;19.65;70.55
55066;BME280;40964;42.114;24.220;2023-05-27T05:58:52;97751.00;;;19.82;69.75
55066;BME280;40964;42.114;24.220;2023-05-27T06:01:17;97757.88;;;19.94;67.38
55066;BME280;40964;42.114;24.220;2023-05-27T06:03:43;97743.41;;;20.00;68.54
55066;BME280;40964;42.114;24.220;2023-05-27T06:06:09;97757.34;;;19.97;67.60
55066;BME280;40964;42.114;24.220;2023-05-27T06:08:35;97754.94;;;19.95;67.58
55066;BME280;40964;42.114;24.220;2023-05-27T06:11:01;97758.13;;;19.97;68.45
55066;BME280;40964;42.114;24.220;2023-05-27T06:13:26;97757.44;;;19.76;68.10
55066;BME280;40964;42.114;24.220;2023-05-27T06:15:51;97761.38;;;19.89;71.16
55066;BME280;40964;42.114;24.220;2023-05-27T06:18:17;97755.75;;;19.96;71.50
55066;BME280;40964;42.114;24.220;2023-05-27T06:20:43;97758.22;;;19.82;71.44
55066;BME280;40964;42.114;24.220;2023-05-27T06:23:08;97768.59;;;19.89;71.36
55066;BME280;40964;42.114;24.220;2023-05-27T06:25:34;97774.09;;;20.02;69.63
55066;BME280;40964;42.114;24.220;2023-05-27T06:27:59;97772.19;;;20.13;70.57
55066;BME280;40964;42.114;24.220;2023-05-27T06:30:25;97774.03;;;20.12;69.54
55066;BME280;40964;42.114;24.220;2023-05-27T06:32:51;97762.03;;;20.49;69.52
55066;BME280;40964;42.114;24.220;2023-05-27T06:35:17;97761.03;;;20.93;66.08
55066;BME280;40964;42.114;24.220;2023-05-27T06:37:42;97760.53;;;21.15;66.00
55066;BME280;40964;42.114;24.220;2023-05-27T06:40:09;97770.66;;;21.18;64.80
55066;BME280;40964;42.114;24.220;2023-05-27T06:42:34;97764.19;;;21.24;65.65
55066;BME280;40964;42.114;24.220;2023-05-27T06:45:00;97768.53;;;21.63;63.43
55066;BME280;40964;42.114;24.220;2023-05-27T06:47:25;97764.34;;;21.75;58.93
55066;BME280;40964;42.114;24.220;2023-05-27T06:49:51;97757.81;;;21.81;57.42
55066;BME280;40964;42.114;24.220;2023-05-27T06:52:16;97760.59;;;22.14;56.02
55066;BME280;40964;42.114;24.220;2023-05-27T06:54:42;97764.03;;;22.33;57.45
55066;BME280;40964;42.114;24.220;2023-05-27T06:57:08;97767.06;;;22.59;59.40
55066;BME280;40964;42.114;24.220;2023-05-27T06:59:34;97766.16;;;22.64;57.54
55066;BME280;40964;42.114;24.220;2023-05-27T07:01:59;97767.25;;;22.49;58.82
55066;BME280;40964;42.114;24.220;2023-05-27T07:04:25;97762.72;;;22.77;60.17
55066;BME280;40964;42.114;24.220;2023-05-27T07:06:50;97761.97;;;22.90;58.59
55066;BME280;40964;42.114;24.220;2023-05-27T07:09:16;97761.78;;;22.87;57.00
55066;BME280;40964;42.114;24.220;2023-05-27T07:11:42;97754.00;;;23.40;58.31
55066;BME280;40964;42.114;24.220;2023-05-27T07:14:07;97759.38;;;23.68;55.61
55066;BME280;40964;42.114;24.220;2023-05-27T07:16:34;97760.53;;;23.75;51.99
55066;BME280;40964;42.114;24.220;2023-05-27T07:19:00;97758.16;;;23.74;52.85
55066;BME280;40964;42.114;24.220;2023-05-27T07:21:26;97756.97;;;24.02;52.72
55066;BME280;40964;42.114;24.220;2023-05-27T07:23:51;97755.00;;;24.17;54.98
55066;BME280;40964;42.114;24.220;2023-05-27T07:26:17;97760.47;;;23.89;51.13
55066;BME280;40964;42.114;24.220;2023-05-27T07:28:43;97756.06;;;23.71;48.49
55066;BME280;40964;42.114;24.220;2023-05-27T07:31:09;97756.59;;;23.59;48.97
55066;BME280;40964;42.114;24.220;2023-05-27T07:33:34;97754.81;;;23.27;50.45
55066;BME280;40964;42.114;24.220;2023-05-27T07:36:00;97764.78;;;23.13;51.54
55066;BME280;40964;42.114;24.220;2023-05-27T07:38:25;97760.69;;;23.15;53.24
55066;BME280;40964;42.114;24.220;2023-05-27T07:40:51;97773.50;;;23.05;51.66
55066;BME280;40964;42.114;24.220;2023-05-27T07:43:16;97766.97;;;22.64;52.19
55066;BME280;40964;42.114;24.220;2023-05-27T07:45:41;97777.13;;;22.81;53.22
55066;BME280;40964;42.114;24.220;2023-05-27T07:48:07;97773.31;;;23.01;51.75
55066;BME280;40964;42.114;24.220;2023-05-27T07:50:32;97767.25;;;23.09;53.71
55066;BME280;40964;42.114;24.220;2023-05-27T07:52:58;97772.53;;;23.28;53.75
55066;BME280;40964;42.114;24.220;2023-05-27T07:55:24;97754.22;;;23.16;52.02
55066;BME280;40964;42.114;24.220;2023-05-27T07:57:49;97778.50;;;23.11;53.26
55066;BME280;40964;42.114;24.220;2023-05-27T08:00:15;97772.41;;;22.92;52.62
55066;BME280;40964;42.114;24.220;2023-05-27T08:02:40;97780.34;;;22.97;54.32
55066;BME280;40964;42.114;24.220;2023-05-27T08:05:09;97775.69;;;22.89;55.09
55066;BME280;40964;42.114;24.220;2023-05-27T08:07:34;97750.97;;;22.59;53.62
55066;BME280;40964;42.114;24.220;2023-05-27T08:10:00;97786.25;;;22.80;53.46
55066;BME280;40964;42.114;24.220;2023-05-27T08:12:26;97778.03;;;22.77;53.64
55066;BME280;40964;42.114;24.220;2023-05-27T08:14:51;97782.78;;;22.80;53.58
55066;BME280;40964;42.114;24.220;2023-05-27T08:17:17;97775.34;;;22.77;54.61
55066;BME280;40964;42.114;24.220;2023-05-27T08:19:42;97788.28;;;22.88;55.58
55066;BME280;40964;42.114;24.220;2023-05-27T08:22:08;97788.34;;;22.70;54.91
55066;BME280;40964;42.114;24.220;2023-05-27T08:24:36;97790.19;;;22.88;55.78
55066;BME280;40964;42.114;24.220;2023-05-27T08:27:02;97793.78;;;22.97;53.02
55066;BME280;40964;42.114;24.220;2023-05-27T08:29:32;97798.16;;;23.07;54.28
55066;BME280;40964;42.114;24.220;2023-05-27T08:31:58;97801.53;;;23.12;54.76
55066;BME280;40964;42.114;24.220;2023-05-27T08:36:49;97798.34;;;23.24;52.76
55066;BME280;40964;42.114;24.220;2023-05-27T08:39:14;97801.44;;;23.17;55.27
55066;BME280;40964;42.114;24.220;2023-05-27T08:41:41;97792.78;;;23.07;55.61
55066;BME280;40964;42.114;24.220;2023-05-27T08:44:06;97795.16;;;23.08;57.74
55066;BME280;40964;42.114;24.220;2023-05-27T08:46:32;97789.59;;;23.05;57.27
55066;BME280;40964;42.114;24.220;2023-05-27T08:48:59;97781.84;;;23.17;56.11
55066;BME280;40964;42.114;24.220;2023-05-27T08:51:25;97785.44;;;23.40;54.55
55066;BME280;40964;42.114;24.220;2023-05-27T08:53:52;97783.81;;;23.52;55.74
55066;BME280;40964;42.114;24.220;2023-05-27T08:56:21;97778.66;;;23.56;54.88
55066;BME280;40964;42.114;24.220;2023-05-27T08:58:47;97781.03;;;23.71;55.03
55066;BME280;40964;42.114;24.220;2023-05-27T09:01:18;97786.53;;;23.66;56.46
55066;BME280;40964;42.114;24.220;2023-05-27T09:03:44;97788.09;;;23.54;57.87
55066;BME280;40964;42.114;24.220;2023-05-27T09:06:10;97768.22;;;23.55;54.50
55066;BME280;40964;42.114;24.220;2023-05-27T09:08:36;97791.25;;;23.83;55.02
55066;BME280;40964;42.114;24.220;2023-05-27T09:11:02;97774.63;;;23.81;53.46
55066;BME280;40964;42.114;24.220;2023-05-27T09:13:31;97777.63;;;23.79;53.84
55066;BME280;40964;42.114;24.220;2023-05-27T09:16:01;97777.97;;;23.64;54.04
55066;BME280;40964;42.114;24.220;2023-05-27T09:18:32;97775.09;;;23.61;54.32
55066;BME280;40964;42.114;24.220;2023-05-27T09:20:58;97778.94;;;23.68;52.75
55066;BME280;40964;42.114;24.220;2023-05-27T09:23:24;97778.66;;;23.70;54.21
55066;BME280;40964;42.114;24.220;2023-05-27T09:25:51;97764.13;;;23.71;52.88
55066;BME280;40964;42.114;24.220;2023-05-27T09:28:22;97777.47;;;23.62;53.75
55066;BME280;40964;42.114;24.220;2023-05-27T09:31:05;97784.00;;;23.70;53.66
55066;BME280;40964;42.114;24.220;2023-05-27T09:33:32;97775.66;;;23.58;53.21
55066;BME280;40964;42.114;24.220;2023-05-27T09:36:02;97772.47;;;23.69;53.28
55066;BME280;40964;42.114;24.220;2023-05-27T09:38:32;97779.88;;;23.64;52.23
55066;BME280;40964;42.114;24.220;2023-05-27T09:41:01;97766.88;;;23.79;52.13
55066;BME280;40964;42.114;24.220;2023-05-27T09:43:28;97767.44;;;23.90;48.49
55066;BME280;40964;42.114;24.220;2023-05-27T09:46:01;97761.16;;;24.17;49.58
55066;BME280;40964;42.114;24.220;2023-05-27T09:48:30;97763.75;;;24.22;48.42
55066;BME280;40964;42.114;24.220;2023-05-27T09:50:57;97766.31;;;24.27;49.19
55066;BME280;40964;42.114;24.220;2023-05-27T09:53:25;97752.50;;;24.65;48.93
55066;BME280;40964;42.114;24.220;2023-05-27T09:55:54;97763.19;;;25.18;46.92
55066;BME280;40964;42.114;24.220;2023-05-27T09:58:21;97767.50;;;25.28;46.99
55066;BME280;40964;42.114;24.220;2023-05-27T10:00:47;97770.47;;;25.18;47.07
55066;BME280;40964;42.114;24.220;2023-05-27T10:03:14;97766.81;;;25.14;46.77
55066;BME280;40964;42.114;24.220;2023-05-27T10:05:43;97765.06;;;25.09;46.25
55066;BME280;40964;42.114;24.220;2023-05-27T10:08:08;97767.53;;;24.66;44.40
55066;BME280;40964;42.114;24.220;2023-05-27T10:10:34;97761.63;;;24.55;45.44
55066;BME280;40964;42.114;24.220;2023-05-27T10:13:00;97765.84;;;24.48;44.83
55066;BME280;40964;42.114;24.220;2023-05-27T10:15:32;97766.81;;;24.29;44.42
55066;BME280;40964;42.114;24.220;2023-05-27T10:18:03;97765.06;;;24.47;44.41
55066;BME280;40964;42.114;24.220;2023-05-27T10:20:37;97759.63;;;24.70;44.48
55066;BME280;40964;42.114;24.220;2023-05-27T10:25:39;97770.94;;;25.11;45.65
55066;BME280;40964;42.114;24.220;2023-05-27T10:28:05;97759.22;;;25.16;45.01
55066;BME280;40964;42.114;24.220;2023-05-27T10:30:42;97759.16;;;25.47;45.35
55066;BME280;40964;42.114;24.220;2023-05-27T10:33:08;97759.16;;;25.56;44.78
55066;BME280;40964;42.114;24.220;2023-05-27T10:35:43;97762.38;;;25.75;44.48
55066;BME280;40964;42.114;24.220;2023-05-27T10:38:18;97756.69;;;25.77;44.30
55066;BME280;40964;42.114;24.220;2023-05-27T10:40:45;97759.81;;;25.61;45.23
55066;BME280;40964;42.114;24.220;2023-05-27T10:43:18;97752.72;;;25.08;46.29
55066;BME280;40964;42.114;24.220;2023-05-27T10:45:45;97751.41;;;24.66;47.81
55066;BME280;40964;42.114;24.220;2023-05-27T10:48:20;97748.72;;;24.66;46.83
55066;BME280;40964;42.114;24.220;2023-05-27T10:50:53;97745.50;;;24.55;47.56
55066;BME280;40964;42.114;24.220;2023-05-27T10:53:20;97745.59;;;24.73;48.64
55066;BME280;40964;42.114;24.220;2023-05-27T10:55:49;97745.78;;;24.85;48.14
55066;BME280;40964;42.114;24.220;2023-05-27T10:58:18;97739.63;;;25.33;47.90
55066;BME280;40964;42.114;24.220;2023-05-27T11:00:47;97728.31;;;25.70;47.45
55066;BME280;40964;42.114;24.220;2023-05-27T11:03:23;97734.00;;;26.21;45.40
55066;BME280;40964;42.114;24.220;2023-05-27T11:06:05;97733.31;;;26.32;45.41
55066;BME280;40964;42.114;24.220;2023-05-27T11:08:31;97729.03;;;26.49;44.14
55066;BME280;40964;42.114;24.220;2023-05-27T11:13:32;97730.78;;;26.36;42.75
55066;BME280;40964;42.114;24.220;2023-05-27T11:15:59;97724.00;;;26.39;43.41
55066;BME280;40964;42.114;24.220;2023-05-27T11:18:24;97732.81;;;26.65;42.82
55066;BME280;40964;42.114;24.220;2023-05-27T11:20:50;97725.94;;;26.76;44.05
55066;BME280;40964;42.114;24.220;2023-05-27T11:23:15;97724.69;;;26.74;44.14
55066;BME280;40964;42.114;24.220;2023-05-27T11:25:44;97718.53;;;27.03;41.72
55066;BME280;40964;42.114;24.220;2023-05-27T11:28:16;97724.44;;;26.96;43.11
55066;BME280;40964;42.114;24.220;2023-05-27T11:30:42;97720.75;;;27.01;42.11
55066;BME280;40964;42.114;24.220;2023-05-27T11:33:07;97717.16;;;26.88;44.46
55066;BME280;40964;42.114;24.220;2023-05-27T11:35:33;97721.78;;;26.87;42.26
55066;BME280;40964;42.114;24.220;2023-05-27T11:37:59;97720.56;;;26.68;43.40
55066;BME280;40964;42.114;24.220;2023-05-27T11:40:33;97710.38;;;26.09;43.09
55066;BME280;40964;42.114;24.220;2023-05-27T11:43:02;97720.03;;;25.58;42.90
55066;BME280;40964;42.114;24.220;2023-05-27T11:45:27;97713.09;;;25.83;43.44
55066;BME280;40964;42.114;24.220;2023-05-27T11:47:53;97715.00;;;26.09;43.52
55066;BME280;40964;42.114;24.220;2023-05-27T11:50:20;97726.88;;;26.16;42.50
55066;BME280;40964;42.114;24.220;2023-05-27T11:52:56;97729.91;;;25.97;45.03
55066;BME280;40964;42.114;24.220;2023-05-27T11:55:22;97724.75;;;24.87;48.36
55066;BME280;40964;42.114;24.220;2023-05-27T11:57:49;97726.50;;;24.29;50.37
55066;BME280;40964;42.114;24.220;2023-05-27T12:00:14;97721.97;;;23.94;50.65
55066;BME280;40964;42.114;24.220;2023-05-27T12:02:41;97718.19;;;23.72;50.27
55066;BME280;40964;42.114;24.220;2023-05-27T12:05:08;97721.00;;;23.90;50.21
55066;BME280;40964;42.114;24.220;2023-05-27T12:07:34;97722.41;;;24.10;51.04
55066;BME280;40964;42.114;24.220;2023-05-27T12:10:01;97716.72;;;23.89;50.35
55066;BME280;40964;42.114;24.220;2023-05-27T12:12:26;97707.94;;;23.97;49.50
55066;BME280;40964;42.114;24.220;2023-05-27T12:14:52;97699.03;;;24.10;49.39
55066;BME280;40964;42.114;24.220;2023-05-27T12:17:17;97699.06;;;23.96;50.11
55066;BME280;40964;42.114;24.220;2023-05-27T12:19:42;97692.88;;;24.10;48.98
55066;BME280;40964;42.114;24.220;2023-05-27T12:22:08;97684.22;;;24.21;51.31
55066;BME280;40964;42.114;24.220;2023-05-27T12:24:33;97676.28;;;24.78;50.57
55066;BME280;40964;42.114;24.220;2023-05-27T12:26:59;97669.75;;;25.10;50.33
55066;BME280;40964;42.114;24.220;2023-05-27T12:29:25;97673.91;;;25.34;45.59
55066;BME280;40964;42.114;24.220;2023-05-27T12:31:52;97676.16;;;25.66;44.88
55066;BME280;40964;42.114;24.220;2023-05-27T12:34:18;97660.94;;;25.62;46.00
55066;BME280;40964;42.114;24.220;2023-05-27T12:36:43;97667.91;;;25.45;47.27
55066;BME280;40964;42.114;24.220;2023-05-27T12:39:09;97660.94;;;25.62;48.56
55066;BME280;40964;42.114;24.220;2023-05-27T12:41:34;97648.28;;;25.62;49.11
55066;BME280;40964;42.114;24.220;2023-05-27T12:44:00;97660.44;;;25.60;46.73
55066;BME280;40964;42.114;24.220;2023-05-27T12:46:25;97654.91;;;25.39;46.66
55066;BME280;40964;42.114;24.220;2023-05-27T12:48:51;97644.94;;;25.39;46.14
55066;BME280;40964;42.114;24.220;2023-05-27T12:51:16;97648.91;;;25.77;46.77
55066;BME280;40964;42.114;24.220;2023-05-27T12:53:42;97636.84;;;25.91;47.37
55066;BME280;40964;42.114;24.220;2023-05-27T12:56:07;97642.56;;;25.64;46.90